Time;durP1;ratioP1;P1;durP2;ratioP2;P2;SDS_P1;SDS_P2;PMS_P1;PMS_P2;Temp;Humidity;BMP_temperature;BMP_pressure;BME280_temperature;BME280_humidity;BME280_pressure;Samples;Min_cycle;Max_cycle;Signal;HPM_P1;HPM_P2
2023/07/05 00:01:48;;;;;;;10.70;4.45;;;;;;;27.07;47.64;96475.84;5037058;28;20025;-27
2023/07/05 00:04:13;;;;;;;10.48;5.03;;;;;;;26.85;48.41;96463.03;5036743;28;20021;-27
2023/07/05 00:06:39;;;;;;;14.68;5.22;;;;;;;26.94;48.41;96465.44;5036942;28;20030;-27
2023/07/05 00:09:04;;;;;;;7.40;4.35;;;;;;;27.06;48.23;96469.53;5036315;28;20056;-27
2023/07/05 00:11:30;;;;;;;12.00;5.75;;;;;;;26.97;48.53;96466.41;5036769;28;20029;-27
2023/07/05 00:13:55;;;;;;;8.05;5.07;;;;;;;26.86;48.58;96470.13;5036584;28;20464;-27
2023/07/05 00:16:21;;;;;;;14.85;5.13;;;;;;;26.88;49.05;96458.44;5036759;28;20455;-27
2023/07/05 00:18:47;;;;;;;12.73;5.32;;;;;;;27.11;48.46;96470.69;5036793;28;20104;-28
2023/07/05 00:21:12;;;;;;;11.40;5.30;;;;;;;26.91;48.90;96465.75;5036295;28;20030;-27
2023/07/05 00:23:39;;;;;;;11.68;5.32;;;;;;;27.05;48.60;96470.06;5036332;28;20035;-27
2023/07/05 00:26:09;;;;;;;13.90;5.88;;;;;;;26.83;48.93;96460.78;5036151;28;20053;-27
2023/07/05 00:28:34;;;;;;;9.88;5.10;;;;;;;26.83;49.46;96455.22;5041472;28;20065;-27
2023/07/05 00:31:02;;;;;;;11.13;5.25;;;;;;;26.96;48.90;96464.88;5038301;28;20056;-27
2023/07/05 00:33:28;;;;;;;8.40;4.60;;;;;;;27.03;48.80;96462.22;5042877;28;20026;-27
2023/07/05 00:35:54;;;;;;;7.82;5.18;;;;;;;26.83;49.46;96452.44;5034928;28;20395;-26
2023/07/05 00:38:21;;;;;;;9.75;5.07;;;;;;;26.84;49.35;96456.72;5036362;28;20067;-27
2023/07/05 00:40:47;;;;;;;11.75;5.35;;;;;;;26.99;49.04;96452.69;5036046;28;20051;-27
2023/07/05 00:43:14;;;;;;;9.93;4.72;;;;;;;26.91;48.93;96449.78;5042748;28;20069;-27
2023/07/05 00:45:50;;;;;;;10.18;4.70;;;;;;;27.02;48.77;96449.59;5043567;28;20406;-29
2023/07/05 00:48:18;;;;;;;11.25;5.32;;;;;;;27.07;48.60;96442.44;5036016;28;20029;-27
2023/07/05 00:50:48;;;;;;;11.35;5.32;;;;;;;26.96;48.70;96446.16;5036119;28;20026;-29
2023/07/05 00:53:14;;;;;;;14.30;5.25;;;;;;;27.06;48.84;96446.50;5035670;28;20360;-27
2023/07/05 00:55:45;;;;;;;10.20;5.32;;;;;;;26.77;49.18;96437.91;5042487;28;20090;-27
2023/07/05 00:58:11;;;;;;;11.27;5.28;;;;;;;26.90;49.00;96442.72;5036128;28;20501;-26
2023/07/05 01:00:36;;;;;;;10.88;5.53;;;;;;;26.83;49.50;96440.56;5035662;28;20021;-26
2023/07/05 01:03:07;;;;;;;9.25;5.32;;;;;;;26.83;49.51;96440.56;5035878;28;20051;-27
2023/07/05 01:05:34;;;;;;;10.57;5.07;;;;;;;26.98;48.92;96431.72;5035568;28;20025;-27
2023/07/05 01:08:00;;;;;;;10.35;5.05;;;;;;;26.88;49.40;96428.59;5034261;28;20462;-28
2023/07/05 01:10:26;;;;;;;11.98;4.97;;;;;;;26.92;48.80;96442.19;5035516;28;20021;-27
2023/07/05 01:13:11;;;;;;;9.85;4.97;;;;;;;26.87;49.44;96437.47;5035829;28;20027;-28
2023/07/05 01:15:59;;;;;;;11.23;5.47;;;;;;;26.88;49.02;96436.19;5035414;28;20025;-27
2023/07/05 01:18:50;;;;;;;9.80;4.85;;;;;;;26.90;48.72;96422.50;5035520;28;20355;-27
2023/07/05 01:21:38;;;;;;;9.65;5.25;;;;;;;26.74;49.61;96427.09;5035560;28;20108;-26
2023/07/05 01:24:10;;;;;;;11.13;4.70;;;;;;;26.71;49.22;96423.34;5035604;28;20079;-28
2023/07/05 01:27:00;;;;;;;10.60;5.00;;;;;;;26.80;49.49;96428.50;5035222;28;20108;-27
2023/07/05 01:29:47;;;;;;;8.30;5.05;;;;;;;26.77;49.21;96421.22;5035033;28;20022;-26
2023/07/05 01:32:31;;;;;;;12.07;4.95;;;;;;;26.73;49.89;96423.56;5035261;28;20063;-27
2023/07/05 01:35:20;;;;;;;9.35;5.20;;;;;;;26.66;50.09;96415.13;5035152;28;20025;-27
2023/07/05 01:37:46;;;;;;;12.20;5.72;;;;;;;26.77;49.74;96420.47;5035210;28;20490;-27
2023/07/05 01:40:34;;;;;;;14.10;5.43;;;;;;;26.64;49.99;96412.88;5035485;28;20021;-26
2023/07/05 01:43:03;;;;;;;6.93;5.20;;;;;;;26.84;49.23;96420.56;5034506;28;20376;-28
2023/07/05 01:45:55;;;;;;;9.57;4.63;;;;;;;26.62;49.61;96420.22;5034952;28;20017;-27
2023/07/05 01:48:54;;;;;;;9.93;5.45;;;;;;;26.62;50.07;96420.22;5034713;28;20079;-27
2023/07/05 01:51:28;;;;;;;9.55;4.88;;;;;;;26.58;49.78;96422.59;5035033;28;20017;-26
2023/07/05 01:54:15;;;;;;;8.07;5.00;;;;;;;26.56;50.26;96409.22;5034810;28;20108;-26
2023/07/05 01:57:02;;;;;;;10.60;5.75;;;;;;;26.70;50.04;96410.75;5035349;28;20407;-27
2023/07/05 01:59:34;;;;;;;12.68;6.03;;;;;;;26.71;49.84;96405.91;5034675;28;20387;-26
2023/07/05 02:02:01;;;;;;;13.50;5.68;;;;;;;26.84;49.90;96403.09;5034745;28;20075;-27
2023/07/05 02:04:28;;;;;;;11.50;5.63;;;;;;;26.74;50.08;96405.59;5034874;28;20033;-26
2023/07/05 02:06:54;;;;;;;8.68;5.03;;;;;;;26.63;50.35;96407.81;5041247;28;20021;-27
2023/07/05 02:09:20;;;;;;;10.02;5.63;;;;;;;26.67;49.98;96406.22;5034549;28;20033;-26
2023/07/05 02:11:45;;;;;;;11.23;5.63;;;;;;;26.73;50.06;96408.91;5034431;28;20471;-27
2023/07/05 02:14:11;;;;;;;8.57;4.97;;;;;;;26.79;49.68;96407.53;5034467;28;20111;-27
2023/07/05 02:16:38;;;;;;;13.07;5.22;;;;;;;26.69;49.92;96405.72;5033998;28;20021;-27
2023/07/05 02:19:06;;;;;;;11.75;5.68;;;;;;;26.79;49.84;96398.41;5034258;28;20066;-28
2023/07/05 02:21:31;;;;;;;14.88;6.55;;;;;;;26.57;50.38;96407.94;5034376;28;20022;-27
2023/07/05 02:23:57;;;;;;;9.80;5.50;;;;;;;26.75;50.10;96404.31;5034182;28;20143;-27
2023/07/05 02:26:22;;;;;;;9.50;6.13;;;;;;;26.69;49.95;96398.09;5034072;28;20021;-27
2023/07/05 02:28:48;;;;;;;13.05;6.22;;;;;;;26.67;50.31;96403.44;5033935;28;20029;-28
2023/07/05 02:31:13;;;;;;;9.40;5.50;;;;;;;26.66;50.56;96401.94;5033908;28;20025;-27
2023/07/05 02:33:40;;;;;;;10.10;5.57;;;;;;;26.52;51.27;96403.22;5039358;28;20039;-27
2023/07/05 02:36:12;;;;;;;9.90;5.70;;;;;;;26.52;50.52;96403.22;5035590;28;20493;-27
2023/07/05 02:38:38;;;;;;;;;;;;;;;26.67;50.50;96403.44;5034531;28;20024;-27
2023/07/05 02:41:04;;;;;;;10.07;4.80;;;;;;;26.60;50.70;96400.53;5034067;28;19909;-28
2023/07/05 02:43:30;;;;;;;8.90;5.07;;;;;;;26.49;50.80;96401.50;5032947;28;20415;-26
2023/07/05 02:45:55;;;;;;;14.93;5.80;;;;;;;26.47;51.37;96393.69;5033082;28;20041;-27
2023/07/05 02:48:20;;;;;;;11.00;5.20;;;;;;;26.64;50.91;96400.97;5033206;28;20022;-26
2023/07/05 02:50:46;;;;;;;9.32;5.10;;;;;;;26.55;51.23;96404.19;5033501;28;20024;-27
2023/07/05 02:53:11;;;;;;;12.43;5.68;;;;;;;26.58;50.63;96412.19;5032774;28;20459;-26
2023/07/05 02:55:37;;;;;;;10.43;5.80;;;;;;;26.56;50.65;96412.00;5033079;28;20504;-28
2023/07/05 02:58:02;;;;;;;9.70;5.68;;;;;;;26.56;51.18;96406.44;5032837;28;20025;-27
2023/07/05 03:00:29;;;;;;;10.40;5.82;;;;;;;26.41;51.66;96401.41;5039869;28;20027;-26
2023/07/05 03:02:56;;;;;;;11.88;5.32;;;;;;;26.60;50.60;96408.88;5033120;28;20395;-27
2023/07/05 03:05:22;;;;;;;10.00;5.60;;;;;;;26.35;51.88;96409.09;5032868;28;20059;-27
2023/07/05 03:07:47;;;;;;;7.80;5.47;;;;;;;26.39;51.50;96408.78;5033072;28;20025;-27
2023/07/05 03:10:13;;;;;;;10.43;5.10;;;;;;;26.45;51.01;96412.22;5032629;28;20067;-27
2023/07/05 03:12:39;;;;;;;10.00;5.15;;;;;;;26.42;51.63;96402.91;5032908;28;20109;-26
2023/07/05 03:15:05;;;;;;;13.50;6.15;;;;;;;26.55;51.43;96406.97;5032839;28;20443;-26
2023/07/05 03:17:31;;;;;;;7.28;5.22;;;;;;;26.61;51.50;96397.22;5032038;28;20514;-28
2023/07/05 03:19:57;;;;;;;11.30;5.80;;;;;;;26.40;51.37;96402.69;5032246;28;20049;-27
2023/07/05 03:22:23;;;;;;;10.52;5.40;;;;;;;26.34;52.15;96407.56;5032689;28;20026;-27
2023/07/05 03:24:51;;;;;;;11.02;5.38;;;;;;;26.48;51.85;96411.88;5032691;28;20071;-27
2023/07/05 03:27:17;;;;;;;13.82;5.95;;;;;;;26.39;51.51;96409.53;5040066;28;20020;-27
2023/07/05 03:29:43;;;;;;;9.77;5.47;;;;;;;26.32;51.49;96409.41;5032548;28;20022;-29
2023/07/05 03:32:08;;;;;;;14.77;5.57;;;;;;;26.36;51.75;96404.28;5032753;28;20037;-26
2023/07/05 03:34:34;;;;;;;11.43;5.53;;;;;;;26.38;51.78;96408.03;5032511;28;20025;-27
2023/07/05 03:36:59;;;;;;;12.52;5.70;;;;;;;26.34;51.70;96409.59;5032703;28;20072;-27
2023/07/05 03:39:25;;;;;;;9.75;5.43;;;;;;;26.47;51.46;96409.63;5039782;28;20426;-27
2023/07/05 03:41:50;;;;;;;10.95;5.57;;;;;;;26.36;51.68;96404.28;4982903;28;1416379;-26
2023/07/05 03:44:15;;;;;;;13.35;6.25;;;;;;;26.45;51.54;96412.22;5033634;28;20108;-26
2023/07/05 03:46:43;;;;;;;10.40;5.70;;;;;;;26.42;51.80;96408.47;5033074;28;20126;-26
2023/07/05 03:49:08;;;;;;;9.88;5.30;;;;;;;26.41;51.60;96417.34;5032996;28;20159;-27
2023/07/05 03:51:34;;;;;;;13.02;6.03;;;;;;;26.27;52.21;96421.34;5033578;28;20075;-27
2023/07/05 03:53:59;;;;;;;10.05;5.43;;;;;;;26.38;51.64;96412.81;5032944;28;20024;-27
2023/07/05 03:56:27;;;;;;;12.15;5.80;;;;;;;26.55;51.21;96415.31;5033461;28;20075;-28
2023/07/05 03:58:53;;;;;;;11.73;5.93;;;;;;;26.40;51.85;96407.50;5033372;28;20021;-27
2023/07/05 04:01:21;;;;;;;8.70;5.53;;;;;;;26.31;51.50;96405.13;5033143;28;20051;-27
2023/07/05 04:03:49;;;;;;;14.00;5.82;;;;;;;26.19;51.93;96417.69;5032803;28;20037;-27
2023/07/05 04:06:16;;;;;;;10.25;5.60;;;;;;;26.15;51.81;96417.25;5033188;28;20108;-27
2023/07/05 04:08:41;;;;;;;10.77;5.45;;;;;;;26.14;52.11;96419.28;5033299;28;20073;-27
2023/07/05 04:11:08;;;;;;;11.20;5.63;;;;;;;26.20;51.69;96414.38;5032913;28;20033;-27
2023/07/05 04:13:34;;;;;;;11.68;5.97;;;;;;;26.19;52.39;96420.47;5032852;28;20112;-26
2023/07/05 04:16:03;;;;;;;10.85;5.72;;;;;;;26.07;51.94;96415.09;5032762;28;20168;-27
2023/07/05 04:18:30;;;;;;;10.23;5.60;;;;;;;25.92;52.86;96412.06;5032620;28;20036;-27
2023/07/05 04:20:56;;;;;;;11.55;5.57;;;;;;;25.88;52.76;96410.84;5032565;28;20029;-27
2023/07/05 04:23:22;;;;;;;12.88;5.40;;;;;;;26.24;52.01;96416.84;5032697;28;20030;-29
2023/07/05 04:25:47;;;;;;;10.48;5.35;;;;;;;26.09;52.31;96417.31;5033246;28;20367;-27
2023/07/05 04:28:13;;;;;;;14.25;5.47;;;;;;;26.06;52.20;96419.16;5032862;28;20551;-27
2023/07/05 04:30:38;;;;;;;10.13;5.50;;;;;;;25.97;52.54;96416.75;5035195;28;20112;-27
2023/07/05 04:33:04;;;;;;;11.02;5.63;;;;;;;25.87;52.92;96418.44;5036812;28;20104;-27
2023/07/05 04:35:30;;;;;;;10.02;5.22;;;;;;;26.22;51.96;96416.63;5036212;28;20017;-27
2023/07/05 04:37:56;;;;;;;12.10;5.53;;;;;;;26.26;51.98;96412.25;5036111;28;20064;-27
2023/07/05 04:40:21;;;;;;;11.05;5.80;;;;;;;26.38;51.66;96412.81;5036378;28;20063;-26
2023/07/05 04:42:47;;;;;;;10.52;5.82;;;;;;;26.23;52.25;96423.69;5042941;28;20081;-28
2023/07/05 04:45:12;;;;;;;10.85;5.18;;;;;;;26.30;52.04;96417.53;5036102;28;20036;-27
2023/07/05 04:47:38;;;;;;;8.63;5.47;;;;;;;26.23;52.26;96424.44;5036222;28;20032;-27
2023/07/05 04:50:04;;;;;;;11.48;5.10;;;;;;;26.43;51.62;96420.34;5036578;28;20474;-27
2023/07/05 04:52:30;;;;;;;10.35;6.13;;;;;;;26.26;52.26;96419.84;5036133;28;20024;-28
2023/07/05 04:54:55;;;;;;;9.80;5.05;;;;;;;26.36;51.76;96415.38;5040333;28;20024;-27
2023/07/05 04:57:21;;;;;;;15.57;6.65;;;;;;;26.30;52.14;96414.75;5038663;28;20021;-27
2023/07/05 04:59:46;;;;;;;8.73;5.18;;;;;;;26.38;52.02;96418.41;5035957;28;20103;-27
2023/07/05 05:02:12;;;;;;;11.43;4.95;;;;;;;26.26;52.38;96428.19;5035863;28;20410;-27
2023/07/05 05:04:38;;;;;;;9.95;5.25;;;;;;;26.46;51.84;96414.44;5036585;28;20033;-28
2023/07/05 05:07:05;;;;;;;14.07;6.40;;;;;;;26.38;51.82;96413.59;5042144;28;20026;-29
2023/07/05 05:09:30;;;;;;;10.32;5.50;;;;;;;26.37;52.14;96420.41;5043532;28;20079;-26
2023/07/05 05:11:56;;;;;;;15.13;6.25;;;;;;;26.35;52.02;96419.44;5036191;28;20025;-26
2023/07/05 05:14:21;;;;;;;14.68;6.68;;;;;;;26.35;52.53;96419.44;5035489;28;20021;-27
2023/07/05 05:16:47;;;;;;;12.75;5.88;;;;;;;26.41;52.32;96423.66;5035522;28;20025;-27
2023/07/05 05:19:12;;;;;;;10.10;5.47;;;;;;;26.40;52.20;96429.72;5035816;28;20379;-26
2023/07/05 05:21:38;;;;;;;13.02;6.00;;;;;;;26.50;52.31;96435.63;5035633;28;20025;-27
2023/07/05 05:24:04;;;;;;;8.98;5.47;;;;;;;26.39;52.68;96431.00;5035540;28;20032;-27
2023/07/05 05:26:29;;;;;;;11.30;5.00;;;;;;;26.46;52.46;96433.16;5035122;28;20093;-26
2023/07/05 05:28:54;;;;;;;13.20;6.45;;;;;;;26.52;52.46;96433.81;5035524;28;20517;-26
2023/07/05 05:31:20;;;;;;;10.68;5.50;;;;;;;26.34;52.67;96435.38;5037899;28;20101;-26
2023/07/05 05:33:46;;;;;;;9.77;5.78;;;;;;;26.43;52.57;96445.38;5039218;28;20026;-26
2023/07/05 05:36:12;;;;;;;12.75;5.68;;;;;;;26.22;52.91;96445.16;5035499;28;20106;-28
2023/07/05 05:38:37;;;;;;;11.50;5.53;;;;;;;26.41;52.96;96447.91;5035153;28;20064;-26
2023/07/05 05:41:08;;;;;;;9.18;5.00;;;;;;;26.53;52.44;96445.69;5033684;28;20022;-27
2023/07/05 05:43:34;;;;;;;11.30;5.15;;;;;;;26.43;52.75;96448.16;5034794;28;20042;-26
2023/07/05 05:45:59;;;;;;;8.05;4.63;;;;;;;26.52;52.02;96450.50;5035090;28;20024;-27
2023/07/05 05:48:26;;;;;;;11.40;5.30;;;;;;;26.56;52.48;96453.72;5035425;28;20028;-27
2023/07/05 05:50:52;;;;;;;8.43;4.82;;;;;;;26.52;52.21;96450.50;5034710;28;20021;-27
2023/07/05 05:53:17;;;;;;;12.57;5.82;;;;;;;26.45;52.78;96453.94;5035051;28;20052;-27
2023/07/05 05:55:43;;;;;;;9.80;5.03;;;;;;;26.53;52.67;96459.59;5033389;28;20021;-28
2023/07/05 05:58:09;;;;;;;8.75;4.95;;;;;;;26.64;52.13;96454.59;5034629;28;20014;-27
2023/07/05 06:00:36;;;;;;;13.07;5.25;;;;;;;26.58;52.28;96458.75;5035086;28;20466;-26
2023/07/05 06:03:02;;;;;;;9.98;5.07;;;;;;;26.59;52.54;96458.22;5034665;28;20517;-28
2023/07/05 06:05:27;;;;;;;9.57;5.55;;;;;;;26.58;52.81;96458.75;5034707;28;20034;-28
2023/07/05 06:07:53;;;;;;;10.93;5.30;;;;;;;26.77;51.99;96460.16;5034329;28;20024;-27
2023/07/05 06:10:19;;;;;;;13.00;5.22;;;;;;;26.78;51.89;96461.66;5034187;28;20032;-27
2023/07/05 06:12:44;;;;;;;9.27;4.95;;;;;;;26.76;51.96;96464.22;5034415;28;20375;-27
2023/07/05 06:15:12;;;;;;;9.05;5.28;;;;;;;26.79;52.27;96468.72;5034666;28;20027;-27
2023/07/05 06:17:37;;;;;;;12.30;5.20;;;;;;;26.79;51.91;96477.06;5034527;28;20026;-29
2023/07/05 06:20:06;;;;;;;11.40;5.50;;;;;;;26.63;52.27;96472.56;5034236;28;20010;-27
2023/07/05 06:22:32;;;;;;;13.93;5.20;;;;;;;26.68;52.29;96480.06;5034214;28;20021;-27
2023/07/05 06:24:58;;;;;;;11.55;5.85;;;;;;;26.64;52.55;96481.66;5034227;28;20104;-26
2023/07/05 06:27:23;;;;;;;10.02;5.00;;;;;;;26.72;52.27;96485.28;5034107;28;20100;-26
2023/07/05 06:29:48;;;;;;;9.68;5.03;;;;;;;26.75;52.37;96481.44;5034044;28;20029;-27
2023/07/05 06:32:14;;;;;;;10.13;5.05;;;;;;;26.71;52.03;96490.09;5035013;28;20124;-27
2023/07/05 06:34:39;;;;;;;8.65;5.47;;;;;;;26.91;51.63;96482.44;5033868;28;20029;-26
2023/07/05 06:37:05;;;;;;;8.25;4.88;;;;;;;26.92;51.63;96487.47;5033935;28;20044;-27
2023/07/05 06:39:30;;;;;;;13.35;5.88;;;;;;;26.81;52.11;96499.56;5033661;28;20096;-26
2023/07/05 06:41:56;;;;;;;10.13;4.75;;;;;;;26.88;52.13;96491.84;5033745;28;20057;-26
2023/07/05 06:44:21;;;;;;;10.48;5.70;;;;;;;26.87;52.24;96507.03;5034335;28;20025;-26
2023/07/05 06:46:47;;;;;;;11.05;5.13;;;;;;;26.89;52.15;96498.91;5033600;28;20010;-27
2023/07/05 06:49:12;;;;;;;12.82;5.20;;;;;;;26.99;51.73;96503.53;5033571;28;20356;-27
2023/07/05 06:51:38;;;;;;;12.27;5.28;;;;;;;26.84;52.16;96495.69;5047015;28;20053;-26
2023/07/05 06:54:03;;;;;;;10.70;5.30;;;;;;;26.69;52.42;96498.25;5033459;28;20075;-26
2023/07/05 06:56:29;;;;;;;11.30;5.18;;;;;;;26.65;52.52;96497.81;5034169;28;20112;-26
2023/07/05 06:58:54;;;;;;;11.20;5.20;;;;;;;26.80;52.06;96502.88;5034120;28;20028;-26
2023/07/05 07:01:20;;;;;;;13.43;5.47;;;;;;;26.77;52.24;96507.47;5040478;28;20031;-28
2023/07/05 07:03:45;;;;;;;10.50;4.80;;;;;;;26.87;52.21;96515.38;5033678;28;20499;-26
2023/07/05 07:06:11;;;;;;;11.27;5.00;;;;;;;26.97;51.55;96510.91;5033607;28;20029;-26
2023/07/05 07:08:39;;;;;;;12.48;5.93;;;;;;;26.83;52.16;96510.88;5033246;28;20083;-26
2023/07/05 07:11:07;;;;;;;8.65;4.72;;;;;;;26.90;52.31;96517.09;5033425;28;20463;-26
2023/07/05 07:13:33;;;;;;;10.13;5.03;;;;;;;27.10;51.43;96508.16;5040339;28;20033;-26
2023/07/05 07:16:10;;;;;;;7.32;5.00;;;;;;;26.99;52.01;96511.13;5033377;28;20021;-27
2023/07/05 07:18:37;;;;;;;9.93;4.78;;;;;;;27.01;51.73;96514.91;5033360;28;20026;-26
2023/07/05 07:21:04;;;;;;;13.05;5.55;;;;;;;26.97;51.78;96522.06;5033273;28;20024;-26
2023/07/05 07:23:30;;;;;;;10.05;5.15;;;;;;;26.89;52.09;96518.38;5033480;28;20080;-26
2023/07/05 07:26:00;;;;;;;10.40;4.72;;;;;;;27.00;51.93;96515.44;5033760;28;20387;-26
2023/07/05 07:28:25;;;;;;;9.10;5.32;;;;;;;27.09;51.38;96523.34;5039843;28;20104;-26
2023/07/05 07:30:51;;;;;;;12.52;5.45;;;;;;;26.80;52.58;96519.56;5033391;28;20036;-26
2023/07/05 07:33:16;;;;;;;8.35;4.85;;;;;;;27.15;51.25;96524.75;5033440;28;20032;-26
2023/07/05 07:35:42;;;;;;;9.80;5.28;;;;;;;27.00;51.98;96521.00;5033199;28;20033;-26
2023/07/05 07:38:07;;;;;;;7.70;5.10;;;;;;;27.26;51.34;96532.13;5033029;28;20021;-26
2023/07/05 07:40:36;;;;;;;10.63;5.13;;;;;;;27.20;50.82;96531.47;5033636;28;20113;-26
2023/07/05 07:43:06;;;;;;;10.00;5.38;;;;;;;27.28;50.89;96531.59;5033356;28;20073;-26
2023/07/05 07:45:31;;;;;;;10.00;5.13;;;;;;;27.16;50.93;96528.28;5040452;28;20021;-27
2023/07/05 07:47:57;;;;;;;6.93;4.20;;;;;;;27.11;50.47;96521.53;5033078;28;20443;-26
2023/07/05 07:50:22;;;;;;;9.75;4.22;;;;;;;27.21;50.33;96523.88;5032992;28;20032;-26
2023/07/05 07:52:48;;;;;;;6.95;4.10;;;;;;;27.25;50.38;96529.88;5033508;28;20025;-26
2023/07/05 07:55:13;;;;;;;9.73;4.63;;;;;;;27.21;50.16;96535.78;5033115;28;20025;-26
2023/07/05 07:57:40;;;;;;;10.50;4.93;;;;;;;27.26;49.68;96536.97;5033382;28;20791;-27
2023/07/05 08:00:10;;;;;;;6.00;3.92;;;;;;;27.25;49.77;96519.50;5032885;28;20025;-26
2023/07/05 08:02:36;;;;;;;7.45;4.22;;;;;;;27.33;49.10;96525.16;5047460;28;20025;-26
2023/07/05 08:05:03;;;;;;;10.43;4.45;;;;;;;27.23;49.09;96516.50;5034430;28;20022;-26
2023/07/05 08:07:30;;;;;;;8.27;4.32;;;;;;;27.23;48.82;96512.97;5036689;28;20021;-26
2023/07/05 08:09:57;;;;;;;7.90;4.78;;;;;;;27.40;48.50;96518.97;5036981;28;20605;-26
2023/07/05 08:12:22;;;;;;;5.82;4.20;;;;;;;27.38;48.70;96518.75;5036663;28;20065;-26
2023/07/05 08:14:48;;;;;;;5.95;3.63;;;;;;;27.35;48.29;96517.03;5036448;28;20041;-26
2023/07/05 08:17:14;;;;;;;6.75;3.65;;;;;;;27.43;48.20;96521.44;5036555;28;20036;-26
2023/07/05 08:19:39;;;;;;;7.78;4.13;;;;;;;27.42;48.21;96514.34;5049514;28;20108;-26
2023/07/05 08:22:06;;;;;;;5.18;3.47;;;;;;;27.25;48.73;96513.94;5037108;28;20023;-26
2023/07/05 08:24:31;;;;;;;8.25;4.20;;;;;;;27.44;48.13;96524.97;5036646;28;20367;-27
2023/07/05 08:26:59;;;;;;;8.35;4.47;;;;;;;27.46;47.90;96517.53;5036820;28;20033;-26
2023/07/05 08:29:25;;;;;;;7.65;4.25;;;;;;;27.41;48.61;96521.22;5036007;28;20029;-26
2023/07/05 08:31:50;;;;;;;7.35;4.22;;;;;;;27.51;48.02;96518.72;5036783;28;20025;-26
2023/07/05 08:34:16;;;;;;;5.68;3.65;;;;;;;27.55;47.66;96519.16;5036273;28;20112;-26
2023/07/05 08:36:42;;;;;;;7.63;3.70;;;;;;;27.53;47.91;96533.63;5036328;28;20055;-26
2023/07/05 08:39:12;;;;;;;6.47;3.75;;;;;;;27.51;47.80;96525.06;5036402;28;20021;-27
2023/07/05 08:41:44;;;;;;;6.72;3.92;;;;;;;27.54;47.84;96529.56;5036013;28;20026;-26
2023/07/05 08:44:31;;;;;;;6.85;4.13;;;;;;;27.34;47.99;96524.63;5036494;28;20049;-26
2023/07/05 08:47:02;;;;;;;7.03;4.32;;;;;;;27.53;47.86;96522.47;5035973;28;20057;-26
2023/07/05 08:49:36;;;;;;;7.40;3.97;;;;;;;27.52;47.60;96517.44;5036017;28;20029;-27
2023/07/05 08:52:03;;;;;;;6.97;3.70;;;;;;;27.40;47.75;96514.13;5041996;28;20025;-26
2023/07/05 08:54:33;;;;;;;9.40;3.53;;;;;;;27.40;45.58;96521.75;5036739;28;20589;-26
2023/07/05 08:57:19;;;;;;;7.97;3.85;;;;;;;27.44;45.13;96514.56;5036106;28;20025;-27
2023/07/05 08:59:57;;;;;;;6.85;3.08;;;;;;;27.48;45.50;96512.19;5036368;28;20044;-26
2023/07/05 09:02:23;;;;;;;6.38;3.25;;;;;;;27.44;44.97;96513.81;5035732;28;20487;-27
2023/07/05 09:04:49;;;;;;;4.80;3.17;;;;;;;27.41;45.32;96509.31;5037763;28;20116;-27
2023/07/05 09:07:33;;;;;;;4.55;3.00;;;;;;;27.52;45.63;96515.41;5040484;28;20083;-28
2023/07/05 09:10:04;;;;;;;7.43;3.20;;;;;;;27.48;45.78;96514.22;5035751;28;20163;-26
2023/07/05 09:12:36;;;;;;;4.18;3.15;;;;;;;27.40;45.98;96516.19;5035778;28;20028;-27
2023/07/05 09:15:25;;;;;;;6.47;3.28;;;;;;;27.47;45.10;96513.47;5042657;28;20028;-26
2023/07/05 09:18:04;;;;;;;8.95;3.10;;;;;;;27.51;45.13;96519.47;5036199;28;20036;-26
2023/07/05 09:20:53;;;;;;;6.80;3.20;;;;;;;27.54;45.44;96515.63;5040383;28;20022;-26
2023/07/05 09:23:29;;;;;;;4.00;2.97;;;;;;;27.48;45.26;96519.81;5035197;28;20459;-26
2023/07/05 09:26:04;;;;;;;5.85;3.10;;;;;;;27.60;45.02;96520.34;5035513;28;20489;-26
2023/07/05 09:28:47;;;;;;;5.15;3.10;;;;;;;27.64;44.51;96520.78;5035225;28;20021;-27
2023/07/05 09:31:14;;;;;;;6.05;3.22;;;;;;;27.57;44.15;96511.03;5037016;28;20037;-27
2023/07/05 09:33:47;;;;;;;4.72;2.33;;;;;;;27.58;44.15;96512.53;5040201;28;20068;-26
2023/07/05 09:36:25;;;;;;;7.70;3.08;;;;;;;27.58;44.17;96515.31;5035390;28;20060;-26
2023/07/05 09:39:13;;;;;;;4.03;2.80;;;;;;;27.57;44.07;96510.31;5035275;28;20025;-26
2023/07/05 09:41:48;;;;;;;4.80;2.95;;;;;;;27.57;44.26;96515.88;5035026;28;20028;-26
2023/07/05 09:44:17;;;;;;;5.70;2.88;;;;;;;27.61;43.59;96510.69;5035534;28;20025;-26
2023/07/05 09:46:49;;;;;;;5.07;2.70;;;;;;;27.63;43.56;96508.13;5035050;28;20439;-26
2023/07/05 09:49:16;;;;;;;4.83;2.90;;;;;;;27.61;44.20;96507.91;5035008;28;20061;-26
2023/07/05 09:51:46;;;;;;;5.90;3.00;;;;;;;27.64;43.55;96515.22;5034673;28;20029;-26
2023/07/05 09:54:20;;;;;;;5.00;2.47;;;;;;;27.65;42.32;96511.88;5035098;28;20419;-27
2023/07/05 09:57:00;;;;;;;5.47;2.55;;;;;;;27.65;42.73;96517.47;5041999;28;20104;-26
2023/07/05 09:59:25;;;;;;;4.50;2.60;;;;;;;27.61;41.95;96519.06;5035068;28;20188;-27
2023/07/05 10:01:55;;;;;;;5.20;2.70;;;;;;;27.72;42.63;96516.03;5035286;28;20527;-28
2023/07/05 10:04:28;;;;;;;3.67;2.20;;;;;;;27.57;42.62;96515.88;5034376;28;20471;-27
2023/07/05 10:06:54;;;;;;;4.80;2.28;;;;;;;27.71;42.59;96514.53;5042328;28;20901;-27
2023/07/05 10:09:23;;;;;;;6.28;3.30;;;;;;;27.72;43.25;96518.81;5034363;28;20029;-27
2023/07/05 10:11:54;;;;;;;4.20;2.88;;;;;;;27.68;43.41;96516.38;5034808;28;20071;-26
2023/07/05 10:14:27;;;;;;;5.60;2.45;;;;;;;27.67;43.05;96516.91;5035327;28;20025;-26
2023/07/05 10:17:02;;;;;;;5.18;3.25;;;;;;;27.72;43.10;96516.03;5034306;28;20040;-26
2023/07/05 10:19:32;;;;;;;4.65;2.67;;;;;;;27.75;43.31;96509.38;5034658;28;20352;-26
2023/07/05 10:22:22;;;;;;;5.85;2.78;;;;;;;27.79;43.24;96513.34;5034439;28;20124;-26
2023/07/05 10:24:50;;;;;;;5.15;2.75;;;;;;;27.81;43.07;96507.25;5034328;28;20025;-27
2023/07/05 10:27:24;;;;;;;6.72;3.15;;;;;;;27.77;43.59;96506.81;5034063;28;20021;-26
2023/07/05 10:30:01;;;;;;;4.70;2.85;;;;;;;27.86;43.72;96507.09;5033955;28;20471;-27
2023/07/05 10:32:28;;;;;;;5.70;3.08;;;;;;;27.81;43.43;96501.66;5034655;28;20026;-26
2023/07/05 10:34:55;;;;;;;4.43;2.90;;;;;;;27.89;43.66;96499.72;5033869;28;20075;-26
2023/07/05 10:37:34;;;;;;;5.50;3.08;;;;;;;27.81;44.25;96510.03;5034330;28;20029;-27
2023/07/05 10:40:09;;;;;;;4.30;3.10;;;;;;;27.91;43.75;96499.91;5033909;28;20084;-26
2023/07/05 10:42:46;;;;;;;4.38;3.10;;;;;;;27.97;44.09;96506.09;5033674;28;20043;-26
2023/07/05 10:45:16;;;;;;;9.90;3.05;;;;;;;27.88;44.03;96501.75;5034281;28;20025;-26
2023/07/05 10:47:44;;;;;;;5.53;3.17;;;;;;;27.87;43.93;96494.66;5033746;28;20022;-26
2023/07/05 10:50:14;;;;;;;6.10;2.90;;;;;;;28.00;44.00;96495.91;5033535;28;20049;-26
2023/07/05 10:53:04;;;;;;;6.95;2.75;;;;;;;27.93;43.67;96486.19;5040932;28;20108;-26
2023/07/05 10:56:00;;;;;;;4.07;2.72;;;;;;;27.97;43.90;96481.00;5033537;28;20037;-26
2023/07/05 10:58:40;;;;;;;9.48;3.25;;;;;;;27.92;44.32;96483.94;5033661;28;20087;-26
2023/07/05 11:01:23;;;;;;;6.93;3.25;;;;;;;27.99;44.43;96483.25;5033812;28;20029;-26
2023/07/05 11:04:05;;;;;;;7.18;3.17;;;;;;;27.98;44.04;96484.56;5040919;28;20023;-27
2023/07/05 11:06:35;;;;;;;7.47;3.10;;;;;;;28.14;44.01;96484.19;5033993;28;20037;-26
2023/07/05 11:09:02;;;;;;;10.38;3.00;;;;;;;28.05;44.09;96493.00;5033582;28;20022;-26
2023/07/05 11:11:31;;;;;;;7.85;3.13;;;;;;;28.03;43.96;96490.00;5040691;28;20045;-27
2023/07/05 11:14:03;;;;;;;6.60;2.92;;;;;;;28.04;43.56;96474.03;5034190;28;20018;-26
2023/07/05 11:16:30;;;;;;;6.67;3.10;;;;;;;28.05;44.18;96479.06;5033402;28;20052;-26
2023/07/05 11:19:05;;;;;;;4.32;3.00;;;;;;;28.04;44.35;96485.94;5033325;28;20040;-26
2023/07/05 11:21:41;;;;;;;6.35;2.67;;;;;;;28.08;43.88;96486.34;5033659;28;20022;-26
2023/07/05 11:24:11;;;;;;;4.75;2.55;;;;;;;28.20;43.22;96479.22;5040577;28;20083;-26
2023/07/05 11:26:44;;;;;;;4.68;2.78;;;;;;;28.11;43.09;96476.88;5033191;28;20025;-27
2023/07/05 11:29:27;;;;;;;4.78;2.85;;;;;;;28.17;42.98;96482.34;5033141;28;20020;-26
2023/07/05 11:31:53;;;;;;;4.35;2.75;;;;;;;28.13;42.83;96479.13;5033236;28;20033;-27
2023/07/05 11:34:21;;;;;;;6.35;2.45;;;;;;;28.20;42.58;96478.47;5033486;28;20018;-26
2023/07/05 11:36:47;;;;;;;6.60;2.60;;;;;;;28.21;41.91;96477.94;5039195;28;20028;-27
2023/07/05 11:39:35;;;;;;;6.78;2.70;;;;;;;28.22;41.48;96478.69;5034556;28;20029;-27